createdAt,value
2023-04-18T00:02:30.683Z,0.70
2023-04-18T00:05:25.018Z,0.70
2023-04-18T00:08:19.262Z,0.30
2023-04-18T00:11:13.546Z,0.63
2023-04-18T00:14:07.708Z,0.90
2023-04-18T00:17:03.675Z,0.95
2023-04-18T00:19:59.483Z,0.40
2023-04-18T00:22:54.571Z,0.50
2023-04-18T00:25:49.259Z,0.90
2023-04-18T00:28:43.511Z,0.73
2023-04-18T00:31:37.879Z,0.70
2023-04-18T00:34:32.194Z,0.70
2023-04-18T00:37:26.385Z,0.70
2023-04-18T00:40:20.598Z,0.80
2023-04-18T00:43:18.631Z,1.02
2023-04-18T00:46:12.829Z,0.45
2023-04-18T00:49:07.059Z,1.48
2023-04-18T00:52:01.877Z,1.15
2023-04-18T00:54:56.842Z,0.73
2023-04-18T00:57:51.185Z,0.40
2023-04-18T01:00:45.944Z,0.68
2023-04-18T01:03:40.880Z,0.60
2023-04-18T01:06:35.395Z,0.80
2023-04-18T01:09:29.905Z,0.80
2023-04-18T01:12:24.012Z,0.50
2023-04-18T01:15:18.208Z,0.57
2023-04-18T01:18:13.019Z,0.50
2023-04-18T01:21:07.792Z,0.88
2023-04-18T01:24:22.801Z,0.75
2023-04-18T01:27:16.991Z,0.50
2023-04-18T01:30:11.848Z,0.75
2023-04-18T01:33:07.454Z,0.57
2023-04-18T01:36:01.793Z,0.50
2023-04-18T01:38:56.048Z,0.47
2023-04-18T01:41:50.184Z,0.50
2023-04-18T01:44:44.478Z,0.77
2023-04-18T01:47:38.632Z,0.60
2023-04-18T01:50:33.084Z,0.68
2023-04-18T01:53:27.174Z,0.52
2023-04-18T01:56:22.193Z,0.60
2023-04-18T01:59:16.351Z,0.60
2023-04-18T02:02:12.372Z,0.60
2023-04-18T02:05:06.840Z,0.55
2023-04-18T02:08:01.028Z,0.50
2023-04-18T02:10:55.218Z,0.47
2023-04-18T02:13:49.903Z,0.50
2023-04-18T02:16:44.122Z,0.77
2023-04-18T02:19:38.481Z,1.00
2023-04-18T02:22:32.700Z,0.70
2023-04-18T02:25:28.859Z,0.77
2023-04-18T02:28:23.002Z,0.68
2023-04-18T02:31:17.456Z,0.60
2023-04-18T02:34:12.044Z,0.40
2023-04-18T02:37:06.641Z,0.75
2023-04-18T02:40:00.723Z,0.40
2023-04-18T02:42:54.919Z,0.73
2023-04-18T02:45:49.216Z,0.75
2023-04-18T02:48:43.449Z,0.75
2023-04-18T02:51:37.619Z,0.45
2023-04-18T02:54:31.723Z,0.60
2023-04-18T02:57:25.921Z,0.30
2023-04-18T03:00:20.920Z,0.38
2023-04-18T03:03:15.082Z,0.45
2023-04-18T03:06:09.322Z,0.50
2023-04-18T03:09:04.532Z,0.38
2023-04-18T03:11:58.727Z,0.47
2023-04-18T03:14:52.974Z,0.30
2023-04-18T03:17:47.160Z,0.50
2023-04-18T03:20:42.128Z,0.32
2023-04-18T03:23:36.309Z,0.75
2023-04-18T03:26:30.649Z,0.40
2023-04-18T03:29:24.783Z,0.50
2023-04-18T03:32:19.634Z,0.70
2023-04-18T03:35:13.958Z,0.40
2023-04-18T03:38:08.200Z,0.40
2023-04-18T03:41:02.410Z,0.40
2023-04-18T03:43:56.526Z,0.60
2023-04-18T03:46:50.725Z,0.50
2023-04-18T03:49:44.992Z,0.30
2023-04-18T03:52:39.171Z,0.30
2023-04-18T03:55:33.500Z,0.60
2023-04-18T03:58:27.606Z,0.50
2023-04-18T04:01:21.966Z,0.43
2023-04-18T04:04:16.681Z,0.40
2023-04-18T04:07:11.031Z,0.30
2023-04-18T04:10:05.354Z,0.70
2023-04-18T04:12:59.529Z,0.50
2023-04-18T04:15:54.427Z,0.30
2023-04-18T04:18:48.603Z,0.38
2023-04-18T04:21:43.358Z,0.35
2023-04-18T04:24:39.750Z,0.40
2023-04-18T04:27:35.245Z,0.47
2023-04-18T04:30:29.887Z,0.60
2023-04-18T04:33:29.841Z,0.38
2023-04-18T04:36:25.872Z,0.50
2023-04-18T04:39:20.023Z,0.38
2023-04-18T04:42:14.629Z,0.32
2023-04-18T04:45:10.727Z,0.47
2023-04-18T04:48:05.125Z,0.60
2023-04-18T04:51:00.925Z,0.50
2023-04-18T04:53:55.121Z,0.60
2023-04-18T04:56:49.478Z,0.47
2023-04-18T04:59:43.784Z,0.65
2023-04-18T05:02:38.200Z,0.63
2023-04-18T05:05:32.772Z,0.30
2023-04-18T05:08:27.483Z,0.50
2023-04-18T05:11:22.256Z,0.50
2023-04-18T05:14:16.916Z,0.60
2023-04-18T05:17:11.103Z,0.50
2023-04-18T05:20:06.117Z,0.40
2023-04-18T05:23:00.257Z,0.40
2023-04-18T05:25:54.980Z,0.30
2023-04-18T05:28:49.471Z,0.43
2023-04-18T05:31:43.688Z,0.40
2023-04-18T05:34:38.915Z,0.57
2023-04-18T05:37:33.216Z,0.50
2023-04-18T05:40:28.682Z,0.55
2023-04-18T05:43:23.148Z,0.60
2023-04-18T05:46:17.338Z,0.50
2023-04-18T05:49:11.601Z,0.40
2023-04-18T05:52:05.971Z,0.70
2023-04-18T05:55:00.167Z,0.47
2023-04-18T05:57:54.353Z,0.47
2023-04-18T06:00:49.486Z,0.55
2023-04-18T06:03:43.901Z,0.43
2023-04-18T06:06:38.504Z,0.63
2023-04-18T06:09:32.706Z,0.57
2023-04-18T06:12:27.139Z,0.40
2023-04-18T06:15:21.392Z,0.50
2023-04-18T06:18:15.597Z,0.40
2023-04-18T06:21:09.895Z,0.40
2023-04-18T06:24:04.116Z,0.43
2023-04-18T06:26:58.692Z,0.73
2023-04-18T06:29:52.926Z,0.47
2023-04-18T06:32:47.140Z,0.57
2023-04-18T06:35:41.536Z,0.50
2023-04-18T06:38:36.098Z,0.70
2023-04-18T06:41:30.272Z,0.50
2023-04-18T06:44:24.461Z,0.45
2023-04-18T06:47:18.926Z,0.30
2023-04-18T06:50:13.155Z,0.40
2023-04-18T06:53:07.375Z,0.50
2023-04-18T06:56:01.770Z,0.55
2023-04-18T06:58:55.969Z,0.50
2023-04-18T07:01:50.246Z,0.35
2023-04-18T07:04:44.637Z,0.63
2023-04-18T07:07:39.055Z,0.40
2023-04-18T07:10:33.628Z,0.28
2023-04-18T07:13:27.765Z,0.70
2023-04-18T07:16:22.670Z,0.75
2023-04-18T07:19:16.811Z,0.38
2023-04-18T07:22:11.252Z,0.55
2023-04-18T07:25:05.688Z,0.73
2023-04-18T07:28:00.120Z,0.65
2023-04-18T07:30:54.490Z,0.70
2023-04-18T07:33:48.860Z,0.73
2023-04-18T07:36:43.472Z,0.50
2023-04-18T07:39:37.687Z,0.70
2023-04-18T07:42:31.873Z,0.60
2023-04-18T07:45:26.064Z,0.85
2023-04-18T07:48:23.126Z,1.00
2023-04-18T07:51:17.493Z,0.45
2023-04-18T07:54:12.365Z,0.70
2023-04-18T07:57:06.749Z,0.70
2023-04-18T08:00:01.050Z,0.45
2023-04-18T08:02:55.478Z,0.47
2023-04-18T08:05:50.291Z,0.50
2023-04-18T08:08:44.848Z,0.93
2023-04-18T08:11:40.154Z,1.05
2023-04-18T08:14:34.498Z,0.85
2023-04-18T08:17:28.691Z,1.02
2023-04-18T08:20:23.204Z,0.98
2023-04-18T08:23:17.400Z,0.88
2023-04-18T08:26:11.641Z,0.90
2023-04-18T08:29:05.772Z,1.27
2023-04-18T08:32:00.304Z,1.00
2023-04-18T08:34:54.575Z,1.10
2023-04-18T08:37:48.865Z,1.10
2023-04-18T08:40:44.540Z,1.05
2023-04-18T08:43:39.921Z,1.23
2023-04-18T08:46:38.413Z,1.27
2023-04-18T08:49:33.308Z,1.10
2023-04-18T08:52:30.800Z,1.10
2023-04-18T08:55:25.087Z,0.98
2023-04-18T08:58:26.705Z,0.88
2023-04-18T09:01:21.050Z,1.02
2023-04-18T09:04:42.139Z,0.80
2023-04-18T09:07:36.353Z,1.00
2023-04-18T09:10:35.739Z,0.90
2023-04-18T09:13:42.329Z,0.90
2023-04-18T09:16:51.625Z,1.20
2023-04-18T09:19:55.624Z,0.80
2023-04-18T09:22:52.511Z,0.95
2023-04-18T09:25:49.342Z,1.05
2023-04-18T09:28:43.600Z,0.77
2023-04-18T09:31:52.718Z,0.70
2023-04-18T09:34:47.921Z,1.45
2023-04-18T09:37:52.657Z,1.10
2023-04-18T09:40:46.907Z,1.08
2023-04-18T09:43:42.187Z,1.02
2023-04-18T09:46:36.551Z,1.27
2023-04-18T09:49:31.278Z,1.08
2023-04-18T09:52:29.835Z,0.90
2023-04-18T09:55:24.431Z,0.80
2023-04-18T09:58:23.385Z,0.95
2023-04-18T10:01:18.043Z,1.13
2023-04-18T10:04:15.555Z,0.70
2023-04-18T10:07:10.238Z,0.80
2023-04-18T10:10:04.566Z,0.90
2023-04-18T10:13:01.676Z,0.80
2023-04-18T10:15:56.470Z,1.20
2023-04-18T10:18:52.516Z,0.70
2023-04-18T10:22:00.312Z,0.70
2023-04-18T10:27:51.683Z,1.38
2023-04-18T10:30:48.962Z,1.40
2023-04-18T10:37:08.624Z,1.15
2023-04-18T10:40:10.880Z,1.27
2023-04-18T10:43:05.575Z,0.90
2023-04-18T10:46:27.935Z,0.82
2023-04-18T10:49:30.285Z,1.45
2023-04-18T10:52:26.686Z,0.98
2023-04-18T10:55:30.342Z,0.98
2023-04-18T10:58:24.891Z,0.98
2023-04-18T11:01:33.941Z,1.20
2023-04-18T11:04:28.496Z,0.90
2023-04-18T11:07:37.749Z,1.00
2023-04-18T11:10:32.022Z,1.02
2023-04-18T11:13:26.396Z,1.00
2023-04-18T11:16:33.749Z,1.20
2023-04-18T11:19:28.290Z,1.73
2023-04-18T11:22:22.444Z,1.10
2023-04-18T11:25:18.187Z,1.40
2023-04-18T11:28:16.012Z,1.17
2023-04-18T11:31:10.322Z,0.98
2023-04-18T11:34:04.565Z,0.90
2023-04-18T11:36:59.089Z,1.00
2023-04-18T11:39:55.332Z,0.80
2023-04-18T11:42:49.572Z,0.90
2023-04-18T11:45:59.705Z,0.98
2023-04-18T11:48:54.094Z,0.80
2023-04-18T11:51:49.237Z,1.45
2023-04-18T11:54:45.326Z,0.90
2023-04-18T11:57:39.556Z,1.02
2023-04-18T12:00:39.848Z,1.15
2023-04-18T12:03:34.292Z,0.95
2023-04-18T12:06:30.846Z,1.02
2023-04-18T12:09:27.284Z,0.75
2023-04-18T12:12:21.654Z,1.10
2023-04-18T12:15:18.051Z,1.00
2023-04-18T12:18:14.894Z,1.20
2023-04-18T12:21:10.006Z,0.93
2023-04-18T12:24:17.032Z,0.70
2023-04-18T12:27:13.180Z,1.20
2023-04-18T12:30:08.534Z,0.80
2023-04-18T12:33:06.490Z,1.10
2023-04-18T12:36:01.533Z,1.20
2023-04-18T12:38:55.736Z,1.08
2023-04-18T12:41:50.144Z,0.88
2023-04-18T12:44:45.372Z,1.05
2023-04-18T12:47:42.662Z,1.40
2023-04-18T12:50:37.063Z,1.60
2023-04-18T12:53:31.479Z,0.80
2023-04-18T12:56:25.862Z,1.30
2023-04-18T12:59:20.284Z,1.42
2023-04-18T13:02:14.572Z,1.35
2023-04-18T13:05:10.592Z,1.35
2023-04-18T13:08:16.380Z,1.10
2023-04-18T13:11:12.098Z,1.33
2023-04-18T13:14:06.440Z,1.88
2023-04-18T13:17:00.863Z,2.13
2023-04-18T13:19:55.111Z,1.50
2023-04-18T13:22:49.374Z,1.80
2023-04-18T13:25:43.466Z,1.67
2023-04-18T13:28:37.588Z,1.40
2023-04-18T13:31:32.706Z,1.60
2023-04-18T13:34:26.861Z,1.60
2023-04-18T13:37:21.142Z,2.22
2023-04-18T13:40:15.406Z,1.75
2023-04-18T13:43:12.046Z,1.50
2023-04-18T13:46:06.857Z,1.60
2023-04-18T13:49:01.019Z,1.35
2023-04-18T13:51:58.232Z,1.70
2023-04-18T13:54:52.439Z,2.88
2023-04-18T13:57:47.322Z,2.30
2023-04-18T14:00:41.653Z,2.33
2023-04-18T14:03:37.898Z,1.58
2023-04-18T14:09:28.944Z,1.95
2023-04-18T14:12:23.539Z,2.20
2023-04-18T14:15:18.202Z,2.17
2023-04-18T14:18:12.338Z,1.63
2023-04-18T14:21:07.516Z,1.92
2023-04-18T14:24:01.710Z,1.50
2023-04-18T14:26:56.269Z,1.73
2023-04-18T14:29:50.572Z,1.77
2023-04-18T14:32:44.758Z,1.73
2023-04-18T14:35:39.070Z,1.83
2023-04-18T14:38:33.489Z,1.90
2023-04-18T14:41:28.023Z,2.67
2023-04-18T14:44:22.514Z,1.95
2023-04-18T14:47:17.077Z,1.77
2023-04-18T14:50:16.581Z,2.20
2023-04-18T14:53:10.766Z,2.00
2023-04-18T14:56:05.071Z,1.45
2023-04-18T14:58:59.572Z,1.75
2023-04-18T15:01:53.774Z,2.67
2023-04-18T15:04:48.302Z,2.22
2023-04-18T15:07:44.151Z,1.80
2023-04-18T15:10:39.041Z,2.28
2023-04-18T15:13:33.166Z,2.00
2023-04-18T15:16:27.608Z,1.70
2023-04-18T15:19:21.869Z,1.67
2023-04-18T15:22:16.127Z,2.97
2023-04-18T15:25:10.747Z,2.10
2023-04-18T15:28:04.927Z,1.60
2023-04-18T15:30:59.164Z,1.88
2023-04-18T15:33:53.280Z,2.28
2023-04-18T15:36:50.307Z,1.65
2023-04-18T15:39:44.403Z,2.10
2023-04-18T15:42:38.598Z,1.67
2023-04-18T15:45:32.921Z,1.60
2023-04-18T15:48:27.117Z,1.40
2023-04-18T15:51:21.446Z,2.03
2023-04-18T15:54:15.944Z,1.95
2023-04-18T15:57:11.037Z,1.75
2023-04-18T16:00:07.770Z,1.80
2023-04-18T16:03:02.031Z,2.45
2023-04-18T16:05:56.557Z,1.70
2023-04-18T16:08:51.065Z,1.80
2023-04-18T16:11:45.424Z,1.55
2023-04-18T16:14:39.536Z,2.20
2023-04-18T16:17:33.998Z,1.83
2023-04-18T16:20:28.495Z,2.45
2023-04-18T16:23:22.947Z,2.35
2023-04-18T16:26:17.090Z,1.85
2023-04-18T16:29:11.343Z,1.88
2023-04-18T16:32:07.759Z,1.63
2023-04-18T16:35:01.956Z,1.87
2023-04-18T16:37:56.077Z,1.67
2023-04-18T16:40:50.329Z,1.92
2023-04-18T16:43:44.473Z,1.55
2023-04-18T16:46:38.687Z,1.98
2023-04-18T16:49:32.864Z,2.15
2023-04-18T16:52:27.218Z,2.22
2023-04-18T16:55:21.460Z,2.05
2023-04-18T16:58:15.650Z,2.53
2023-04-18T17:01:09.740Z,1.70
2023-04-18T17:04:04.470Z,1.83
2023-04-18T17:06:58.700Z,1.75
2023-04-18T17:09:53.177Z,2.38
2023-04-18T17:12:50.312Z,1.73
2023-04-18T17:15:44.496Z,2.38
2023-04-18T17:18:38.680Z,1.52
2023-04-18T17:21:33.752Z,1.77
2023-04-18T17:24:28.300Z,1.70
2023-04-18T17:27:22.470Z,1.73
2023-04-18T17:30:16.718Z,1.48
2023-04-18T17:33:12.166Z,1.52
2023-04-18T17:36:07.753Z,1.85
2023-04-18T17:39:07.620Z,1.38
2023-04-18T17:42:03.285Z,1.58
2023-04-18T17:44:57.505Z,2.10
2023-04-18T17:47:52.067Z,1.98
2023-04-18T17:50:46.422Z,1.95
2023-04-18T17:53:40.600Z,1.88
2023-04-18T17:56:35.053Z,1.65
2023-04-18T17:59:29.539Z,1.88
2023-04-18T18:02:24.823Z,2.28
2023-04-18T18:05:19.046Z,1.85
2023-04-18T18:08:13.299Z,1.65
2023-04-18T18:11:07.521Z,1.83
2023-04-18T18:14:02.134Z,1.75
2023-04-18T18:16:56.644Z,1.45
2023-04-18T18:19:50.822Z,1.38
2023-04-18T18:22:45.640Z,1.92
2023-04-18T18:25:39.972Z,1.33
2023-04-18T18:28:34.566Z,1.95
2023-04-18T18:31:28.811Z,1.92
2023-04-18T18:34:23.158Z,1.70
2023-04-18T18:37:17.610Z,1.35
2023-04-18T18:40:12.206Z,1.30
2023-04-18T18:43:08.721Z,1.63
2023-04-18T18:46:02.973Z,1.90
2023-04-18T18:48:57.639Z,2.10
2023-04-18T18:51:51.760Z,1.73
2023-04-18T18:54:45.902Z,1.45
2023-04-18T18:57:40.124Z,1.45
2023-04-18T19:00:34.449Z,1.92
2023-04-18T19:03:29.874Z,1.50
2023-04-18T19:06:24.301Z,2.03
2023-04-18T19:09:21.487Z,1.60
2023-04-18T19:12:15.678Z,1.52
2023-04-18T19:15:10.619Z,1.83
2023-04-18T19:18:04.799Z,1.60
2023-04-18T19:20:58.946Z,1.40
2023-04-18T19:23:53.083Z,1.42
2023-04-18T19:26:47.216Z,1.23
2023-04-18T19:29:41.886Z,1.85
2023-04-18T19:32:36.121Z,1.77
2023-04-18T19:35:30.371Z,1.15
2023-04-18T19:38:24.975Z,1.45
2023-04-18T19:41:19.142Z,1.65
2023-04-18T19:44:13.256Z,1.60
2023-04-18T19:47:07.864Z,1.50
2023-04-18T19:50:02.857Z,2.28
2023-04-18T19:52:57.074Z,1.58
2023-04-18T19:55:51.176Z,1.23
2023-04-18T19:58:47.955Z,1.45
2023-04-18T20:01:42.211Z,1.83
2023-04-18T20:04:37.671Z,1.88
2023-04-18T20:07:32.377Z,1.75
2023-04-18T20:10:26.628Z,1.40
2023-04-18T20:13:20.809Z,2.22
2023-04-18T20:16:15.083Z,1.67
2023-04-18T20:25:00.934Z,1.38
2023-04-18T20:27:55.061Z,1.50
2023-04-18T20:30:49.341Z,1.70
2023-04-18T20:33:43.604Z,2.35
2023-04-18T20:36:42.561Z,1.05
2023-04-18T20:39:38.127Z,1.20
2023-04-18T20:42:33.521Z,1.42
2023-04-18T20:45:28.990Z,1.10
2023-04-18T20:48:23.310Z,1.50
2023-04-18T20:51:17.472Z,1.40
2023-04-18T20:54:12.362Z,1.58
2023-04-18T20:57:06.645Z,1.13
2023-04-18T21:00:00.955Z,1.48
2023-04-18T21:02:55.534Z,1.58
2023-04-18T21:05:49.822Z,1.55
2023-04-18T21:08:43.985Z,1.25
2023-04-18T21:11:38.128Z,1.20
2023-04-18T21:14:32.448Z,1.25
2023-04-18T21:17:27.166Z,1.20
2023-04-18T21:20:21.731Z,1.30
2023-04-18T21:23:15.908Z,1.25
2023-04-18T21:26:12.220Z,1.50
2023-04-18T21:29:06.958Z,1.20
2023-04-18T21:32:01.153Z,1.50
2023-04-18T21:34:57.499Z,1.35
2023-04-18T21:37:51.676Z,1.73
2023-04-18T21:40:45.778Z,1.40
2023-04-18T21:43:39.931Z,1.40
2023-04-18T21:46:34.092Z,1.10
2023-04-18T21:49:28.374Z,1.70
2023-04-18T21:52:22.514Z,1.42
2023-04-18T21:55:16.637Z,1.15
2023-04-18T21:58:10.796Z,1.70
2023-04-18T22:01:05.353Z,1.55
2023-04-18T22:03:59.597Z,1.75
2023-04-18T22:06:56.980Z,1.73
2023-04-18T22:12:46.922Z,1.23
2023-04-18T22:15:41.089Z,1.27
2023-04-18T22:18:36.930Z,1.30
2023-04-18T22:21:32.577Z,1.60
2023-04-18T22:24:29.338Z,1.33
2023-04-18T22:27:23.468Z,1.80
2023-04-18T22:30:17.701Z,1.58
2023-04-18T22:33:11.828Z,1.75
2023-04-18T22:36:06.286Z,2.10
2023-04-18T22:39:00.451Z,1.45
2023-04-18T22:41:54.629Z,1.42
2023-04-18T22:44:48.769Z,1.65
2023-04-18T22:47:42.913Z,1.60
2023-04-18T22:50:38.958Z,1.35
2023-04-18T22:53:33.264Z,1.40
2023-04-18T22:56:27.595Z,1.70
2023-04-18T22:59:22.140Z,1.30
2023-04-18T23:02:16.776Z,0.95
2023-04-18T23:05:12.037Z,1.75
2023-04-18T23:08:07.955Z,2.15
2023-04-18T23:11:02.123Z,1.30
2023-04-18T23:13:56.279Z,1.73
2023-04-18T23:16:50.553Z,1.80
2023-04-18T23:19:46.345Z,1.23
2023-04-18T23:22:40.475Z,1.92
2023-04-18T23:25:35.079Z,1.60
2023-04-18T23:28:29.378Z,1.60
2023-04-18T23:31:24.289Z,1.27
2023-04-18T23:34:18.437Z,1.30
2023-04-18T23:37:12.647Z,1.63
2023-04-18T23:40:07.800Z,1.63
2023-04-18T23:43:02.569Z,1.58
2023-04-18T23:45:56.882Z,1.42
2023-04-18T23:48:51.036Z,1.58
2023-04-18T23:51:45.225Z,1.30
2023-04-18T23:54:39.381Z,1.08
2023-04-18T23:57:33.571Z,1.50
